createdAt,value
2022-10-14T00:01:22.451Z,100643.16
2022-10-14T00:03:51.417Z,100640.75
2022-10-14T00:06:24.276Z,100508.72
2022-10-14T00:08:52.574Z,100630.19
2022-10-14T00:11:22.489Z,100648.19
2022-10-14T00:13:51.065Z,100508.34
2022-10-14T00:16:20.590Z,100633.13
2022-10-14T00:18:48.816Z,100628.34
2022-10-14T00:21:17.757Z,100618.25
2022-10-14T00:23:47.575Z,100630.53
2022-10-14T00:26:17.045Z,100636.41
2022-10-14T00:28:45.152Z,100631.97
2022-10-14T00:31:13.034Z,100619.13
2022-10-14T00:33:40.854Z,100559.97
2022-10-14T00:36:09.864Z,100624.78
2022-10-14T00:38:37.720Z,100570.28
2022-10-14T00:41:07.189Z,100579.59
2022-10-14T00:43:54.401Z,100624.78
2022-10-14T00:46:22.243Z,100377.47
2022-10-14T00:48:56.505Z,100593.84
2022-10-14T00:51:24.648Z,100611.44
2022-10-14T00:53:52.682Z,100623.28
2022-10-14T00:56:25.791Z,100488.69
2022-10-14T00:58:54.632Z,100620.13
2022-10-14T01:01:22.792Z,100620.06
2022-10-14T01:03:51.871Z,100610.75
2022-10-14T01:06:31.745Z,100541.91
2022-10-14T01:09:04.533Z,100625.88
2022-10-14T01:11:41.644Z,100512.06
2022-10-14T01:14:21.679Z,100467.03
2022-10-14T01:16:58.581Z,100618.81
2022-10-14T01:19:55.262Z,100383.28
2022-10-14T01:22:28.690Z,100510.22
2022-10-14T01:25:09.664Z,100582.84
2022-10-14T01:27:53.679Z,100610.44
2022-10-14T01:30:24.110Z,100608.69
2022-10-14T01:33:04.187Z,100598.19
2022-10-14T01:35:55.461Z,100593.72
2022-10-14T01:38:28.467Z,100589.25
2022-10-14T01:41:05.746Z,100534.53
2022-10-14T01:43:34.474Z,100583.38
2022-10-14T01:46:06.944Z,100441.59
2022-10-14T01:48:38.673Z,100451.75
2022-10-14T01:51:12.864Z,100473.53
2022-10-14T01:53:44.074Z,100567.22
2022-10-14T01:56:13.286Z,100555.56
2022-10-14T01:58:42.246Z,100551.91
2022-10-14T02:01:12.547Z,100356.88
2022-10-14T02:03:42.471Z,100487.56
2022-10-14T02:06:15.771Z,100432.34
2022-10-14T02:09:02.334Z,100543.84
2022-10-14T02:11:38.857Z,100543.25
2022-10-14T02:14:15.267Z,100495.13
2022-10-14T02:16:52.854Z,100530.03
2022-10-14T02:19:27.003Z,100536.41
2022-10-14T02:22:01.473Z,100522.00
2022-10-14T02:24:40.649Z,100416.22
2022-10-14T02:27:13.037Z,100532.63
2022-10-14T02:29:43.939Z,100520.75
2022-10-14T02:32:15.456Z,100520.31
2022-10-14T02:34:46.484Z,100522.91
2022-10-14T02:37:16.731Z,100481.47
2022-10-14T02:39:50.643Z,100477.53
2022-10-14T02:42:18.824Z,100503.41
2022-10-14T02:44:54.976Z,100362.13
2022-10-14T02:47:25.280Z,100510.09
2022-10-14T02:49:53.551Z,100362.56
2022-10-14T02:52:22.187Z,100498.88
2022-10-14T02:54:50.306Z,100500.66
2022-10-14T02:57:18.239Z,100497.94
2022-10-14T02:59:45.977Z,100487.56
2022-10-14T03:02:13.812Z,100466.31
2022-10-14T03:04:43.894Z,100499.72
2022-10-14T03:07:12.387Z,100482.81
2022-10-14T03:09:45.999Z,100484.97
2022-10-14T03:12:13.919Z,100481.06
2022-10-14T03:14:42.070Z,100394.78
2022-10-14T03:17:13.339Z,100495.47
2022-10-14T03:19:41.427Z,100452.00
2022-10-14T03:22:10.879Z,100502.66
2022-10-14T03:24:40.219Z,100491.25
2022-10-14T03:27:26.809Z,100394.94
2022-10-14T03:30:00.710Z,100364.91
2022-10-14T03:32:28.923Z,100394.78
2022-10-14T03:35:19.665Z,100477.03
2022-10-14T03:37:53.141Z,100491.94
2022-10-14T03:40:23.179Z,100361.66
2022-10-14T03:42:52.073Z,100424.97
2022-10-14T03:45:22.058Z,100460.09
2022-10-14T03:47:49.962Z,100486.84
2022-10-14T03:50:17.825Z,100338.91
2022-10-14T03:52:55.406Z,100470.84
2022-10-14T03:55:30.848Z,100491.09
2022-10-14T03:57:59.179Z,100486.72
2022-10-14T04:00:27.656Z,100434.91
2022-10-14T04:03:09.019Z,100483.47
2022-10-14T04:05:40.297Z,100369.09
2022-10-14T04:08:17.502Z,100449.00
2022-10-14T04:10:53.886Z,100387.94
2022-10-14T04:13:23.070Z,100326.75
2022-10-14T04:15:51.184Z,100436.50
2022-10-14T04:18:25.875Z,100462.63
2022-10-14T04:21:01.193Z,100376.63
2022-10-14T04:23:30.965Z,100445.13
2022-10-14T04:26:05.868Z,100452.75
2022-10-14T04:28:34.946Z,100265.88
2022-10-14T04:31:12.535Z,100353.22
2022-10-14T04:33:53.092Z,100318.88
2022-10-14T04:36:27.507Z,100458.34
2022-10-14T04:38:59.036Z,100304.34
2022-10-14T04:41:26.808Z,100394.97
2022-10-14T04:43:57.084Z,100316.28
2022-10-14T04:46:44.561Z,100393.66
2022-10-14T04:49:12.817Z,100447.22
2022-10-14T04:51:49.764Z,100326.03
2022-10-14T04:54:28.492Z,100450.81
2022-10-14T04:56:58.954Z,100449.16
2022-10-14T04:59:27.008Z,100447.38
2022-10-14T05:02:01.159Z,100449.16
2022-10-14T05:04:37.711Z,100447.56
2022-10-14T05:07:05.452Z,100444.97
2022-10-14T05:09:34.560Z,100443.13
2022-10-14T05:12:02.863Z,100438.59
2022-10-14T05:14:46.557Z,100439.25
2022-10-14T05:17:21.828Z,100439.94
2022-10-14T05:19:49.657Z,100447.63
2022-10-14T05:22:19.836Z,100445.13
2022-10-14T05:24:49.395Z,100359.50
2022-10-14T05:27:17.746Z,100437.06
2022-10-14T05:29:48.771Z,100440.41
2022-10-14T05:32:20.125Z,100390.97
2022-10-14T05:34:50.793Z,100436.81
2022-10-14T05:37:26.833Z,100286.97
2022-10-14T05:39:57.525Z,100441.34
2022-10-14T05:42:27.824Z,100431.78
2022-10-14T05:44:58.540Z,100424.84
2022-10-14T05:47:27.483Z,100423.84
2022-10-14T05:50:03.013Z,100419.56
2022-10-14T05:52:34.305Z,100426.50
2022-10-14T05:55:09.508Z,100421.41
2022-10-14T05:57:37.304Z,100379.47
2022-10-14T06:00:07.820Z,100419.75
2022-10-14T06:02:44.924Z,100424.00
2022-10-14T06:05:17.097Z,100423.19
2022-10-14T06:07:45.478Z,100382.19
2022-10-14T06:10:14.622Z,100409.63
2022-10-14T06:12:42.501Z,100417.81
2022-10-14T06:15:11.084Z,100370.28
2022-10-14T06:17:39.040Z,100423.31
2022-10-14T06:20:07.910Z,100428.25
2022-10-14T06:22:35.608Z,100422.88
2022-10-14T06:25:04.657Z,100420.22
2022-10-14T06:27:33.895Z,100416.66
2022-10-14T06:30:01.661Z,100286.75
2022-10-14T06:32:29.529Z,100406.09
2022-10-14T06:34:57.352Z,100304.09
2022-10-14T06:37:25.185Z,100373.72
2022-10-14T06:39:52.955Z,100380.13
2022-10-14T06:42:20.727Z,100388.88
2022-10-14T06:44:49.924Z,100213.78
2022-10-14T06:47:17.744Z,100245.50
2022-10-14T06:49:45.516Z,100401.06
2022-10-14T06:52:13.335Z,100398.47
2022-10-14T06:54:43.608Z,100388.81
2022-10-14T06:57:15.181Z,100391.25
2022-10-14T06:59:42.937Z,100387.72
2022-10-14T07:02:12.183Z,100393.66
2022-10-14T07:04:40.042Z,100385.00
2022-10-14T07:07:08.388Z,100395.31
2022-10-14T07:09:36.212Z,100338.56
2022-10-14T07:12:04.051Z,100336.53
2022-10-14T07:14:31.804Z,100389.38
2022-10-14T07:17:00.460Z,100375.28
2022-10-14T07:19:29.604Z,100386.69
2022-10-14T07:21:57.412Z,100270.94
2022-10-14T07:24:25.500Z,100363.72
2022-10-14T07:26:53.325Z,100377.38
2022-10-14T07:29:21.368Z,100330.50
2022-10-14T07:31:49.107Z,100323.34
2022-10-14T07:34:16.864Z,100386.13
2022-10-14T07:36:45.998Z,100388.41
2022-10-14T07:39:13.989Z,100384.88
2022-10-14T07:41:41.869Z,100380.88
2022-10-14T07:44:10.163Z,100365.59
2022-10-14T07:46:41.188Z,100385.16
2022-10-14T07:49:12.023Z,100384.69
2022-10-14T07:51:41.075Z,100381.34
2022-10-14T07:54:14.277Z,100383.28
2022-10-14T07:56:43.888Z,100380.22
2022-10-14T07:59:12.129Z,100385.06
2022-10-14T08:01:40.020Z,100388.41
2022-10-14T08:04:08.056Z,100377.13
2022-10-14T08:06:35.881Z,100249.06
2022-10-14T08:09:05.124Z,100373.16
2022-10-14T08:11:34.697Z,100379.75
2022-10-14T08:14:02.737Z,100381.97
2022-10-14T08:16:32.600Z,100166.91
2022-10-14T08:19:02.783Z,100379.13
2022-10-14T08:21:30.514Z,100374.16
2022-10-14T08:23:58.570Z,100243.81
2022-10-14T08:26:29.788Z,100368.31
2022-10-14T08:29:01.148Z,100362.44
2022-10-14T08:31:29.372Z,100338.09
2022-10-14T08:33:57.187Z,100367.22
2022-10-14T08:36:25.163Z,100365.88
2022-10-14T08:38:53.808Z,100375.47
2022-10-14T08:41:34.510Z,100360.66
2022-10-14T08:44:14.297Z,100267.19
2022-10-14T08:46:49.504Z,100349.94
2022-10-14T08:49:26.013Z,100353.19
2022-10-14T08:51:59.962Z,100342.34
2022-10-14T08:54:35.816Z,100341.31
2022-10-14T08:57:04.519Z,100349.03
2022-10-14T08:59:38.175Z,100338.50
2022-10-14T09:02:20.236Z,100337.16
2022-10-14T09:04:48.186Z,100338.91
2022-10-14T09:07:19.548Z,100323.56
2022-10-14T09:09:51.691Z,100309.09
2022-10-14T09:12:25.226Z,100315.94
2022-10-14T09:15:05.121Z,100319.81
2022-10-14T09:17:38.143Z,100126.78
2022-10-14T09:20:17.460Z,100229.63
2022-10-14T09:22:46.316Z,100244.59
2022-10-14T09:25:16.463Z,100309.28
2022-10-14T09:30:20.382Z,100095.63
2022-10-14T09:32:51.926Z,100301.25
2022-10-14T09:35:25.119Z,99856.13
2022-10-14T09:37:53.564Z,100296.69
2022-10-14T09:40:30.045Z,100259.69
2022-10-14T09:43:01.348Z,100243.19
2022-10-14T09:45:46.817Z,100305.44
2022-10-14T09:48:18.753Z,100302.06
2022-10-14T09:50:51.563Z,100297.16
2022-10-14T09:53:27.952Z,100305.69
2022-10-14T09:55:58.737Z,100301.22
2022-10-14T09:58:32.730Z,100289.56
2022-10-14T10:01:02.893Z,100283.41
2022-10-14T10:03:33.975Z,100286.22
2022-10-14T10:06:07.690Z,100279.78
2022-10-14T10:08:37.673Z,100204.38
2022-10-14T10:11:10.380Z,100009.97
2022-10-14T10:13:41.603Z,100096.50
2022-10-14T10:16:24.888Z,100192.34
2022-10-14T10:18:55.161Z,100244.13
2022-10-14T10:21:25.760Z,100094.34
2022-10-14T10:23:58.809Z,100080.34
2022-10-14T10:26:30.616Z,99983.53
2022-10-14T10:28:59.500Z,100248.66
2022-10-14T10:34:23.858Z,100212.19
2022-10-14T10:36:57.449Z,100246.13
2022-10-14T10:39:38.107Z,100249.50
2022-10-14T10:42:12.786Z,100246.06
2022-10-14T10:44:59.399Z,100241.91
2022-10-14T10:47:41.080Z,100242.16
2022-10-14T10:50:28.765Z,100187.13
2022-10-14T10:53:22.811Z,100204.50
2022-10-14T10:56:00.941Z,100231.81
2022-10-14T10:58:41.549Z,100229.44
2022-10-14T11:01:26.232Z,100023.56
2022-10-14T11:04:15.970Z,100228.41
2022-10-14T11:07:10.749Z,100214.28
2022-10-14T11:10:02.143Z,100224.50
2022-10-14T11:12:40.140Z,100223.56
2022-10-14T11:15:31.391Z,100205.16
2022-10-14T11:18:04.233Z,100205.88
2022-10-14T11:20:43.697Z,99988.47
2022-10-14T11:23:34.673Z,100193.03
2022-10-14T11:26:08.272Z,99958.22
2022-10-14T11:28:45.732Z,100190.63
2022-10-14T11:31:26.905Z,100190.34
2022-10-14T11:34:18.537Z,100101.66
2022-10-14T11:37:01.389Z,100186.69
2022-10-14T11:39:39.663Z,100187.28
2022-10-14T11:42:26.893Z,100183.84
2022-10-14T11:45:24.225Z,100115.13
2022-10-14T11:48:05.457Z,100001.63
2022-10-14T11:50:40.213Z,100181.00
2022-10-14T11:53:15.217Z,100173.13
2022-10-14T11:55:49.625Z,100131.06
2022-10-14T11:58:23.803Z,100159.28
2022-10-14T12:00:56.454Z,100169.41
2022-10-14T12:03:37.481Z,100101.78
2022-10-14T12:06:16.621Z,100166.91
2022-10-14T12:08:51.490Z,100129.03
2022-10-14T12:11:28.928Z,100119.84
2022-10-14T12:14:06.513Z,100163.63
2022-10-14T12:16:34.964Z,100158.06
2022-10-14T12:19:02.969Z,100153.69
2022-10-14T12:21:36.540Z,100150.16
2022-10-14T12:24:11.871Z,100152.63
2022-10-14T12:26:55.431Z,100150.53
2022-10-14T12:29:26.037Z,99921.94
2022-10-14T12:32:21.025Z,100139.84
2022-10-14T12:34:50.860Z,100029.06
2022-10-14T12:37:46.128Z,100135.72
2022-10-14T12:40:31.989Z,100135.22
2022-10-14T12:43:04.595Z,99909.13
2022-10-14T12:45:35.770Z,100061.53
2022-10-14T12:48:08.741Z,99866.00
2022-10-14T12:50:38.651Z,100038.94
2022-10-14T12:53:09.272Z,99955.91
2022-10-14T12:55:49.438Z,99857.16
2022-10-14T12:58:25.004Z,100102.66
2022-10-14T13:01:00.098Z,100098.31
2022-10-14T13:03:31.993Z,100092.88
2022-10-14T13:06:27.736Z,100104.50
2022-10-14T13:09:33.351Z,100028.63
2022-10-14T13:12:43.868Z,100087.06
2022-10-14T13:15:34.160Z,100088.00
2022-10-14T13:18:35.232Z,100053.47
2022-10-14T13:21:03.501Z,99860.97
2022-10-14T13:23:37.926Z,100068.44
2022-10-14T13:26:20.405Z,99995.19
2022-10-14T13:29:00.282Z,99803.34
2022-10-14T13:31:38.874Z,100048.56
2022-10-14T13:34:18.993Z,100054.84
2022-10-14T13:37:01.899Z,100016.72
2022-10-14T13:39:33.422Z,99961.22
2022-10-14T13:42:02.102Z,100058.13
2022-10-14T13:44:31.403Z,100053.53
2022-10-14T13:47:02.556Z,99647.13
2022-10-14T13:49:37.491Z,100008.09
2022-10-14T13:52:10.635Z,100044.03
2022-10-14T13:54:38.465Z,100046.63
2022-10-14T14:02:53.861Z,100027.78
2022-10-14T14:05:27.482Z,100033.97
2022-10-14T14:11:14.887Z,99997.03
2022-10-14T14:13:53.408Z,99986.59
2022-10-14T14:16:27.208Z,100027.19
2022-10-14T14:19:04.362Z,99846.00
2022-10-14T14:21:36.097Z,100033.59
2022-10-14T14:24:16.200Z,100033.22
2022-10-14T14:26:49.493Z,100039.41
2022-10-14T14:29:23.431Z,99849.47
2022-10-14T14:32:08.746Z,100023.28
2022-10-14T14:34:39.734Z,99968.81
2022-10-14T14:37:40.279Z,100015.06
2022-10-14T14:40:07.698Z,100008.91
2022-10-14T14:42:37.678Z,100006.41
2022-10-14T14:45:12.536Z,99949.19
2022-10-14T14:47:42.645Z,99948.47
2022-10-14T14:50:31.120Z,100031.22
2022-10-14T14:53:03.359Z,100030.53
2022-10-14T14:55:36.857Z,99677.25
2022-10-14T14:58:07.773Z,100024.34
2022-10-14T15:00:35.711Z,99977.34
2022-10-14T15:03:05.180Z,99848.50
2022-10-14T15:05:33.172Z,100001.09
2022-10-14T15:08:01.079Z,99957.41
2022-10-14T15:10:31.567Z,99536.59
2022-10-14T15:13:02.671Z,100004.63
2022-10-14T15:15:35.037Z,99722.59
2022-10-14T15:18:24.761Z,99941.53
2022-10-14T15:20:53.010Z,99732.78
2022-10-14T15:23:41.878Z,99952.44
2022-10-14T15:26:24.557Z,99991.00
2022-10-14T15:32:06.024Z,99915.28
2022-10-14T15:34:37.769Z,99863.69
2022-10-14T15:37:06.134Z,99977.84
2022-10-14T15:39:34.185Z,99686.22
2022-10-14T15:42:02.284Z,99895.94
2022-10-14T15:44:32.811Z,99820.28
2022-10-14T15:47:18.233Z,99803.00
2022-10-14T15:49:48.278Z,99970.09
2022-10-14T15:52:20.397Z,99864.72
2022-10-14T15:54:51.096Z,99887.00
2022-10-14T15:57:18.981Z,99954.16
2022-10-14T15:59:52.012Z,99967.69
2022-10-14T16:02:25.988Z,99972.31
2022-10-14T16:07:43.799Z,99865.28
2022-10-14T16:10:14.710Z,99962.41
2022-10-14T16:12:42.776Z,99938.34
2022-10-14T16:15:24.230Z,99873.16
2022-10-14T16:17:53.188Z,99963.13
2022-10-14T16:20:23.403Z,99686.06
2022-10-14T16:22:51.828Z,99942.88
2022-10-14T16:25:26.246Z,99913.41
2022-10-14T16:27:54.157Z,99848.84
2022-10-14T16:30:22.868Z,99955.44
2022-10-14T16:32:51.322Z,99893.41
2022-10-14T16:35:19.284Z,99917.28
2022-10-14T16:37:48.865Z,99954.94
2022-10-14T16:40:17.092Z,99713.59
2022-10-14T16:42:45.392Z,99692.66
2022-10-14T16:45:14.233Z,99963.09
2022-10-14T16:47:42.155Z,99958.06
2022-10-14T16:50:11.615Z,99940.06
2022-10-14T16:53:08.599Z,99639.56
2022-10-14T16:55:39.262Z,99963.56
2022-10-14T16:58:07.133Z,99632.59
2022-10-14T17:00:36.211Z,99856.22
2022-10-14T17:03:08.950Z,99963.19
2022-10-14T17:05:36.906Z,99740.84
2022-10-14T17:08:08.297Z,99961.13
2022-10-14T17:10:39.180Z,99938.44
2022-10-14T17:13:07.167Z,99952.69
2022-10-14T17:15:39.299Z,99967.47
2022-10-14T17:18:09.939Z,99822.63
2022-10-14T17:20:40.224Z,99905.41
2022-10-14T17:23:10.335Z,99948.53
2022-10-14T17:25:46.183Z,99871.34
2022-10-14T17:28:14.081Z,99796.56
2022-10-14T17:30:41.917Z,99963.00
2022-10-14T17:33:09.785Z,99927.97
2022-10-14T17:35:37.678Z,99863.88
2022-10-14T17:38:07.413Z,99618.72
2022-10-14T17:40:35.481Z,99827.84
2022-10-14T17:43:05.149Z,99853.19
2022-10-14T17:45:33.096Z,99425.97
2022-10-14T17:48:01.037Z,99856.72
2022-10-14T17:50:30.144Z,99636.78
2022-10-14T17:52:59.013Z,99783.41
2022-10-14T17:55:28.436Z,99620.16
2022-10-14T17:57:56.606Z,99502.69
2022-10-14T18:00:26.055Z,99886.47
2022-10-14T18:02:54.215Z,99768.00
2022-10-14T18:05:22.344Z,99933.59
2022-10-14T18:07:50.287Z,99520.94
2022-10-14T18:10:18.326Z,99912.34
2022-10-14T18:12:46.297Z,99720.53
2022-10-14T18:15:14.271Z,99930.75
2022-10-14T18:17:43.731Z,99608.88
2022-10-14T18:20:11.864Z,99769.22
2022-10-14T18:22:40.652Z,99531.53
2022-10-14T18:25:09.266Z,99928.69
2022-10-14T18:27:37.231Z,99927.97
2022-10-14T18:30:06.137Z,99754.78
2022-10-14T18:32:34.222Z,99946.47
2022-10-14T18:35:05.439Z,99888.19
2022-10-14T18:37:33.407Z,99907.53
2022-10-14T18:40:01.309Z,99910.25
2022-10-14T18:42:29.605Z,99671.53
2022-10-14T18:44:59.079Z,99936.50
2022-10-14T18:47:27.036Z,99934.03
2022-10-14T18:49:55.012Z,99865.53
2022-10-14T18:52:25.537Z,99841.53
2022-10-14T18:54:53.850Z,99716.38
2022-10-14T18:57:23.858Z,99869.09
2022-10-14T18:59:52.570Z,99932.47
2022-10-14T19:02:21.680Z,99738.38
2022-10-14T19:04:50.090Z,99949.13
2022-10-14T19:07:18.697Z,99934.66
2022-10-14T19:09:48.761Z,99721.50
2022-10-14T19:12:33.949Z,99897.09
2022-10-14T19:15:04.403Z,99694.69
2022-10-14T19:17:33.881Z,99662.00
2022-10-14T19:20:01.874Z,99883.53
2022-10-14T19:22:29.798Z,99812.16
2022-10-14T19:24:59.132Z,99867.16
2022-10-14T19:27:27.466Z,99478.59
2022-10-14T19:29:55.531Z,99872.44
2022-10-14T19:32:24.859Z,99636.34
2022-10-14T19:34:52.972Z,99524.69
2022-10-14T19:37:21.913Z,99729.50
2022-10-14T19:39:53.349Z,99673.63
2022-10-14T19:42:27.151Z,99721.78
2022-10-14T19:45:05.890Z,99665.22
2022-10-14T19:47:36.598Z,99929.72
2022-10-14T19:50:19.553Z,99783.97
2022-10-14T19:52:48.191Z,99858.00
2022-10-14T19:55:16.543Z,99447.72
2022-10-14T19:57:46.409Z,99891.31
2022-10-14T20:00:15.571Z,99793.06
2022-10-14T20:02:46.594Z,99732.19
2022-10-14T20:05:17.533Z,99851.53
2022-10-14T20:07:46.288Z,99610.22
2022-10-14T20:10:15.335Z,99785.25
2022-10-14T20:12:43.916Z,99860.25
2022-10-14T20:15:13.870Z,99544.81
2022-10-14T20:17:42.811Z,99832.63
2022-10-14T20:20:13.173Z,99882.91
2022-10-14T20:22:41.454Z,99661.97
2022-10-14T20:25:11.086Z,99740.16
2022-10-14T20:27:39.809Z,99456.34
2022-10-14T20:30:09.178Z,99816.84
2022-10-14T20:32:39.062Z,99364.97
2022-10-14T20:35:10.471Z,99698.53
2022-10-14T20:37:42.620Z,99579.69
2022-10-14T20:40:11.889Z,99586.16
2022-10-14T20:42:40.064Z,99872.47
2022-10-14T20:45:09.037Z,99886.94
2022-10-14T20:47:38.722Z,99702.88
2022-10-14T20:50:07.882Z,99868.50
2022-10-14T20:52:35.755Z,99801.59
2022-10-14T20:55:04.436Z,99860.81
2022-10-14T20:57:32.665Z,99852.06
2022-10-14T21:00:00.999Z,99609.03
2022-10-14T21:02:29.351Z,99688.78
2022-10-14T21:05:00.797Z,99660.91
2022-10-14T21:07:29.174Z,99399.25
2022-10-14T21:09:57.266Z,99578.34
2022-10-14T21:12:26.336Z,99856.75
2022-10-14T21:14:54.563Z,99578.44
2022-10-14T21:17:23.071Z,99878.59
2022-10-14T21:19:51.441Z,99534.88
2022-10-14T21:22:21.504Z,99735.47
2022-10-14T21:24:49.965Z,99521.88
2022-10-14T21:27:18.028Z,99684.41
2022-10-14T21:29:46.977Z,99845.31
2022-10-14T21:32:15.818Z,99859.34
2022-10-14T21:34:44.564Z,99792.19
2022-10-14T21:37:14.549Z,99859.84
2022-10-14T21:39:44.728Z,99852.28
2022-10-14T21:42:14.512Z,99705.34
2022-10-14T21:44:42.581Z,99430.56
2022-10-14T21:47:10.456Z,99689.44
2022-10-14T21:49:38.580Z,99886.81
2022-10-14T21:52:08.393Z,99686.13
2022-10-14T21:54:36.941Z,99853.53
2022-10-14T21:57:07.053Z,99838.53
2022-10-14T21:59:35.850Z,99424.94
2022-10-14T22:02:05.237Z,99858.81
2022-10-14T22:04:35.989Z,99529.25
2022-10-14T22:09:59.727Z,99825.75
2022-10-14T22:12:30.581Z,99762.34
2022-10-14T22:14:58.927Z,99784.75
2022-10-14T22:17:27.270Z,99852.78
2022-10-14T22:20:00.492Z,99577.91
2022-10-14T22:22:31.358Z,99680.44
2022-10-14T22:25:01.409Z,99694.03
2022-10-14T22:27:31.584Z,99503.41
2022-10-14T22:30:02.524Z,99649.00
2022-10-14T22:32:31.348Z,99827.63
2022-10-14T22:37:46.495Z,99349.50
2022-10-14T22:40:15.101Z,99830.63
2022-10-14T22:42:49.070Z,99769.56
2022-10-14T22:45:20.014Z,99810.91
2022-10-14T22:47:48.155Z,99650.19
2022-10-14T22:50:16.857Z,99842.69
2022-10-14T22:52:45.296Z,99763.97
2022-10-14T22:55:15.811Z,99417.69
2022-10-14T22:57:45.450Z,99710.06
2022-10-14T23:00:16.619Z,99492.97
2022-10-14T23:02:47.071Z,99598.22
2022-10-14T23:05:15.350Z,99818.66
2022-10-14T23:07:43.869Z,99734.72
2022-10-14T23:10:12.084Z,99822.19
2022-10-14T23:12:40.655Z,99639.63
2022-10-14T23:15:11.486Z,99823.69
2022-10-14T23:17:40.450Z,99657.53
2022-10-14T23:20:10.685Z,99673.72
2022-10-14T23:22:38.960Z,99831.16
2022-10-14T23:25:08.564Z,99669.56
2022-10-14T23:27:36.836Z,99584.72
2022-10-14T23:30:06.193Z,99673.84
2022-10-14T23:32:36.166Z,99658.28
2022-10-14T23:35:05.130Z,99469.94
2022-10-14T23:37:33.558Z,99686.53
2022-10-14T23:40:02.299Z,99620.81
2022-10-14T23:42:30.892Z,99733.84
2022-10-14T23:44:59.851Z,99585.47
2022-10-14T23:47:29.453Z,99833.09
2022-10-14T23:49:59.738Z,99763.66
2022-10-14T23:52:28.530Z,99830.72
2022-10-14T23:57:25.758Z,99611.94
2022-10-14T23:59:55.827Z,99520.56
